createdAt,value
2018-11-22T00:00:31.719Z,90.00
2018-11-22T00:03:01.612Z,90.00
2018-11-22T00:05:31.023Z,90.00
2018-11-22T00:08:03.668Z,90.00
2018-11-22T00:10:33.791Z,90.00
2018-11-22T00:13:03.168Z,89.90
2018-11-22T00:15:32.543Z,89.80
2018-11-22T00:18:02.032Z,89.90
2018-11-22T00:20:31.427Z,89.90
2018-11-22T00:23:00.802Z,89.80
2018-11-22T00:25:30.220Z,89.90
2018-11-22T00:27:59.591Z,89.80
2018-11-22T00:30:31.140Z,89.90
2018-11-22T00:33:00.610Z,89.90
2018-11-22T00:35:30.021Z,90.20
2018-11-22T00:38:00.223Z,90.00
2018-11-22T00:40:29.714Z,90.00
2018-11-22T00:42:59.150Z,90.00
2018-11-22T00:45:29.230Z,90.00
2018-11-22T00:47:58.723Z,90.00
2018-11-22T00:50:28.125Z,89.80
2018-11-22T00:52:57.767Z,89.70
2018-11-22T00:55:27.929Z,89.70
2018-11-22T00:57:57.558Z,89.70
2018-11-22T01:00:28.415Z,89.60
2018-11-22T01:02:57.839Z,89.40
2018-11-22T01:05:27.758Z,89.40
2018-11-22T01:07:57.185Z,89.30
2018-11-22T01:10:27.819Z,89.20
2018-11-22T01:12:58.607Z,89.20
2018-11-22T01:15:27.984Z,89.20
2018-11-22T01:17:57.397Z,89.20
2018-11-22T01:20:27.139Z,89.00
2018-11-22T01:22:58.092Z,89.10
2018-11-22T01:25:27.534Z,89.10
2018-11-22T01:27:56.944Z,89.10
2018-11-22T01:30:26.954Z,89.10
2018-11-22T01:32:57.184Z,89.30
2018-11-22T01:35:26.903Z,89.50
2018-11-22T01:37:56.269Z,89.80
2018-11-22T01:40:26.259Z,90.10
2018-11-22T01:42:55.634Z,90.10
2018-11-22T01:45:26.127Z,90.20
2018-11-22T01:47:59.426Z,90.30
2018-11-22T01:50:28.828Z,90.40
2018-11-22T01:52:58.193Z,90.40
2018-11-22T01:55:27.622Z,90.60
2018-11-22T01:57:56.989Z,90.70
2018-11-22T02:00:26.924Z,90.70
2018-11-22T02:02:56.300Z,90.70
2018-11-22T02:05:26.375Z,90.80
2018-11-22T02:07:55.764Z,90.80
2018-11-22T02:10:25.400Z,90.80
2018-11-22T02:12:54.775Z,90.90
2018-11-22T02:15:26.420Z,90.90
2018-11-22T02:17:55.788Z,91.00
2018-11-22T02:20:25.640Z,91.00
2018-11-22T02:22:55.389Z,91.10
2018-11-22T02:25:26.369Z,91.10
2018-11-22T02:27:55.788Z,91.10
2018-11-22T02:30:26.517Z,91.10
2018-11-22T02:32:57.143Z,91.10
2018-11-22T02:35:26.880Z,91.10
2018-11-22T02:37:56.373Z,91.10
2018-11-22T02:40:26.216Z,91.10
2018-11-22T02:42:55.919Z,91.20
2018-11-22T02:45:26.991Z,91.20
2018-11-22T02:47:56.347Z,91.20
2018-11-22T02:50:26.042Z,91.20
2018-11-22T02:52:56.650Z,91.20
2018-11-22T02:55:26.034Z,91.20
2018-11-22T02:57:55.462Z,91.10
2018-11-22T03:00:30.166Z,91.10
2018-11-22T03:02:59.668Z,91.20
2018-11-22T03:05:29.062Z,91.20
2018-11-22T03:07:58.572Z,91.10
2018-11-22T03:10:28.142Z,91.20
2018-11-22T03:12:57.637Z,91.20
2018-11-22T03:15:27.157Z,91.20
2018-11-22T03:17:56.552Z,91.30
2018-11-22T03:20:25.921Z,91.20
2018-11-22T03:22:55.445Z,91.30
2018-11-22T03:25:24.826Z,91.30
2018-11-22T03:27:54.668Z,91.30
2018-11-22T03:30:24.932Z,91.20
2018-11-22T03:32:54.321Z,91.30
2018-11-22T03:35:25.184Z,91.30
2018-11-22T03:37:54.622Z,91.30
2018-11-22T03:40:25.161Z,91.30
2018-11-22T03:42:54.551Z,91.30
2018-11-22T03:45:24.904Z,91.30
2018-11-22T03:47:54.282Z,91.30
2018-11-22T03:50:25.081Z,91.20
2018-11-22T03:52:55.125Z,91.30
2018-11-22T03:55:24.499Z,91.40
2018-11-22T03:57:54.485Z,91.30
2018-11-22T04:00:28.384Z,91.40
2018-11-22T04:02:57.850Z,91.20
2018-11-22T04:05:28.778Z,91.30
2018-11-22T04:08:01.157Z,91.30
2018-11-22T04:10:31.761Z,91.40
2018-11-22T04:13:01.127Z,91.40
2018-11-22T04:15:30.475Z,91.40
2018-11-22T04:17:59.877Z,91.30
2018-11-22T04:20:30.780Z,91.30
2018-11-22T04:23:00.161Z,91.30
2018-11-22T04:25:29.655Z,91.30
2018-11-22T04:27:59.112Z,91.30
2018-11-22T04:30:32.948Z,91.40
2018-11-22T04:33:02.321Z,91.40
2018-11-22T04:35:32.186Z,91.40
2018-11-22T04:38:01.956Z,91.50
2018-11-22T04:40:32.163Z,91.40
2018-11-22T04:43:01.558Z,91.40
2018-11-22T04:45:32.061Z,91.30
2018-11-22T04:48:01.943Z,91.30
2018-11-22T04:50:33.528Z,91.30
2018-11-22T04:53:02.978Z,91.30
2018-11-22T04:55:32.357Z,91.30
2018-11-22T04:58:01.713Z,91.50
2018-11-22T05:00:31.169Z,91.40
2018-11-22T05:03:00.603Z,91.80
2018-11-22T05:05:29.979Z,91.50
2018-11-22T05:07:59.377Z,91.50
2018-11-22T05:10:29.377Z,91.50
2018-11-22T05:12:58.763Z,91.40
2018-11-22T05:15:29.776Z,91.40
2018-11-22T05:17:59.141Z,91.50
2018-11-22T05:20:28.523Z,91.50
2018-11-22T05:22:57.915Z,91.40
2018-11-22T05:25:27.291Z,91.50
2018-11-22T05:27:56.725Z,91.50
2018-11-22T05:30:27.701Z,91.50
2018-11-22T05:32:57.119Z,91.50
2018-11-22T05:35:26.572Z,91.50
2018-11-22T05:37:55.959Z,91.50
2018-11-22T05:40:26.786Z,91.50
2018-11-22T05:42:56.314Z,91.40
2018-11-22T05:45:27.271Z,91.40
2018-11-22T05:47:56.746Z,91.40
2018-11-22T05:50:27.649Z,91.50
2018-11-22T05:52:58.494Z,91.50
2018-11-22T05:55:27.946Z,91.50
2018-11-22T05:57:57.357Z,91.60
2018-11-22T06:00:28.169Z,91.50
2018-11-22T06:02:58.617Z,91.60
2018-11-22T06:05:29.492Z,91.70
2018-11-22T06:07:58.936Z,91.60
2018-11-22T06:10:30.700Z,91.70
2018-11-22T06:13:00.300Z,91.70
2018-11-22T06:15:29.667Z,91.70
2018-11-22T06:17:59.936Z,91.70
2018-11-22T06:20:30.482Z,91.70
2018-11-22T06:22:59.879Z,91.70
2018-11-22T06:25:29.361Z,91.70
2018-11-22T06:27:58.962Z,91.70
2018-11-22T06:30:29.896Z,91.60
2018-11-22T06:33:00.444Z,91.60
2018-11-22T06:35:30.566Z,91.60
2018-11-22T06:38:00.195Z,91.70
2018-11-22T06:40:29.641Z,91.60
2018-11-22T06:42:59.743Z,91.60
2018-11-22T06:45:30.410Z,91.60
2018-11-22T06:47:59.847Z,91.60
2018-11-22T06:50:29.453Z,91.50
2018-11-22T06:52:58.918Z,91.80
2018-11-22T06:55:29.928Z,91.50
2018-11-22T06:57:59.551Z,91.50
2018-11-22T07:00:30.195Z,91.50
2018-11-22T07:03:07.994Z,91.50
2018-11-22T07:05:37.445Z,91.60
2018-11-22T07:08:06.835Z,91.60
2018-11-22T07:10:36.292Z,91.60
2018-11-22T07:13:05.677Z,91.60
2018-11-22T07:15:35.117Z,91.60
2018-11-22T07:18:04.520Z,91.50
2018-11-22T07:20:33.951Z,91.70
2018-11-22T07:23:03.945Z,91.40
2018-11-22T07:25:33.394Z,91.60
2018-11-22T07:28:02.757Z,91.40
2018-11-22T07:30:34.022Z,91.50
2018-11-22T07:33:03.991Z,91.50
2018-11-22T07:35:34.612Z,91.40
2018-11-22T07:38:03.979Z,91.40
2018-11-22T07:40:34.166Z,91.30
2018-11-22T07:43:04.082Z,91.40
2018-11-22T07:45:35.179Z,91.40
2018-11-22T07:48:05.499Z,91.70
2018-11-22T07:50:35.431Z,91.40
2018-11-22T12:16:05.107Z,86.20
2018-11-22T12:18:40.404Z,86.60
2018-11-22T12:21:16.340Z,86.20
2018-11-22T12:23:52.170Z,86.50
2018-11-22T12:26:28.199Z,86.40
2018-11-22T12:29:03.983Z,86.70
2018-11-22T12:31:40.021Z,86.90
2018-11-22T12:34:20.328Z,87.10
2018-11-22T12:37:00.987Z,87.40
2018-11-22T12:39:37.025Z,87.50
2018-11-22T12:42:13.054Z,87.90
2018-11-22T12:44:48.874Z,88.00
2018-11-22T12:47:24.861Z,88.10
2018-11-22T12:50:00.781Z,87.80
2018-11-22T12:52:35.873Z,87.80
2018-11-22T12:55:11.920Z,87.40
2018-11-22T12:57:48.402Z,86.60
2018-11-22T13:00:23.416Z,87.00
2018-11-22T13:02:58.430Z,86.60
2018-11-22T13:05:34.116Z,86.90
2018-11-22T13:08:09.981Z,86.10
2018-11-22T13:10:45.723Z,86.30
2018-11-22T13:13:21.549Z,86.00
2018-11-22T13:15:57.401Z,86.10
2018-11-22T13:18:33.345Z,86.00
2018-11-22T13:21:08.285Z,86.10
2018-11-22T13:23:43.302Z,86.20
2018-11-22T13:26:19.093Z,86.50
2018-11-22T13:28:55.026Z,85.70
2018-11-22T13:31:30.016Z,85.70
2018-11-22T13:34:06.098Z,85.00
2018-11-22T13:36:41.526Z,85.40
2018-11-22T13:39:16.476Z,85.50
2018-11-22T13:41:52.204Z,85.70
2018-11-22T13:44:27.257Z,85.70
2018-11-22T13:47:03.260Z,85.70
2018-11-22T13:49:39.097Z,86.90
2018-11-22T13:52:14.510Z,85.40
2018-11-22T13:54:50.463Z,85.80
2018-11-22T13:57:26.239Z,85.80
2018-11-22T14:00:01.726Z,84.90
2018-11-22T14:02:37.229Z,84.50
2018-11-22T14:05:12.234Z,83.50
2018-11-22T14:07:47.957Z,82.20
2018-11-22T14:10:23.042Z,81.30
2018-11-22T14:12:59.003Z,81.70
2018-11-22T14:15:35.083Z,81.10
2018-11-22T14:18:10.811Z,81.20
2018-11-22T14:20:46.689Z,81.60
2018-11-22T14:23:22.531Z,80.80
2018-11-22T14:25:57.725Z,80.70
2018-11-22T14:28:33.306Z,81.20
2018-11-22T14:31:08.522Z,80.30
2018-11-22T14:33:43.591Z,81.10
2018-11-22T14:36:19.599Z,80.70
2018-11-22T14:38:55.519Z,81.00
2018-11-22T14:41:30.590Z,80.40
2018-11-22T14:44:06.157Z,79.90
2018-11-22T14:46:41.183Z,80.90
2018-11-22T14:49:16.313Z,81.00
2018-11-22T14:51:52.327Z,80.20
2018-11-22T14:54:28.049Z,80.50
2018-11-22T14:57:10.751Z,81.10
2018-11-22T14:59:46.149Z,81.20
2018-11-22T15:02:28.599Z,80.80
2018-11-22T15:05:04.098Z,81.00
2018-11-22T15:07:41.449Z,81.20
2018-11-22T15:10:17.603Z,82.90
2018-11-22T15:12:53.035Z,84.00
2018-11-22T15:15:28.791Z,84.80
2018-11-22T15:18:03.929Z,85.20
2018-11-22T15:20:39.758Z,85.70
2018-11-22T15:23:15.621Z,86.00
2018-11-22T15:25:51.375Z,86.30
2018-11-22T15:28:27.326Z,86.60
2018-11-22T15:31:02.283Z,87.00
2018-11-22T15:33:38.235Z,87.30
2018-11-22T15:36:13.957Z,87.60
2018-11-22T15:38:49.903Z,87.60
2018-11-22T15:41:24.924Z,88.00
2018-11-22T15:44:00.891Z,88.10
2018-11-22T15:46:36.603Z,88.20
2018-11-22T15:49:12.498Z,88.50
2018-11-22T15:51:48.382Z,88.70
2018-11-22T15:54:24.282Z,88.90
2018-11-22T15:57:00.176Z,88.90
2018-11-22T15:59:36.041Z,89.20
2018-11-22T16:02:12.111Z,89.40
2018-11-22T16:04:47.432Z,89.70
2018-11-22T16:07:23.365Z,89.60
2018-11-22T16:13:07.239Z,89.40
2018-11-22T16:15:46.456Z,90.00
2018-11-22T16:24:43.689Z,91.60
2018-11-22T16:27:18.487Z,86.40
2018-11-22T16:29:53.075Z,80.40
2018-11-22T16:32:27.679Z,75.30
2018-11-22T16:35:02.599Z,71.10
2018-11-22T16:37:37.310Z,67.90
2018-11-22T16:40:14.230Z,65.30
2018-11-22T16:43:19.325Z,63.30
2018-11-22T16:45:54.293Z,57.00
2018-11-22T16:50:01.434Z,57.60
2018-11-22T16:52:36.322Z,56.10
2018-11-22T16:55:12.032Z,55.30
2018-11-22T16:57:48.601Z,55.00
2018-11-22T17:00:26.603Z,54.70
2018-11-22T17:03:03.732Z,54.40
2018-11-22T17:05:40.158Z,54.30
2018-11-22T17:08:15.301Z,54.20
2018-11-22T17:10:51.075Z,54.10
2018-11-22T17:13:26.133Z,54.00
2018-11-22T17:16:01.313Z,54.20
2018-11-22T17:18:36.266Z,53.80
2018-11-22T17:21:12.068Z,53.80
2018-11-22T17:23:46.972Z,53.60
2018-11-22T17:26:22.013Z,53.50
2018-11-22T17:28:57.058Z,54.00
2018-11-22T17:31:32.418Z,53.50
2018-11-22T17:37:23.533Z,41.90
2018-11-22T17:39:58.673Z,46.00
2018-11-22T17:44:59.096Z,64.50
2018-11-22T17:47:34.904Z,71.70
2018-11-22T17:50:12.442Z,76.40
2018-11-22T17:52:47.351Z,80.10
2018-11-22T17:55:24.796Z,82.50
2018-11-22T17:58:00.518Z,85.60
2018-11-22T18:00:38.234Z,86.80
2018-11-22T18:03:13.262Z,84.10
2018-11-22T18:05:49.390Z,87.30
2018-11-22T18:08:24.878Z,89.30
2018-11-22T18:11:00.871Z,90.10
2018-11-22T18:13:36.564Z,87.20
2018-11-22T18:16:12.513Z,86.80
2018-11-22T18:18:47.555Z,89.10
2018-11-22T18:21:23.443Z,88.60
2018-11-22T18:23:59.041Z,88.60
2018-11-22T18:26:33.984Z,89.00
2018-11-22T18:29:08.992Z,89.60
2018-11-22T18:31:44.946Z,90.30
2018-11-22T18:34:20.783Z,90.20
2018-11-22T18:36:56.861Z,90.10
2018-11-22T18:39:32.641Z,90.20
2018-11-22T18:42:07.665Z,90.10
2018-11-22T18:44:42.601Z,90.50
2018-11-22T18:47:19.004Z,90.70
2018-11-22T18:49:54.236Z,90.60
2018-11-22T18:52:29.206Z,90.60
2018-11-22T18:55:04.552Z,90.40
2018-11-22T18:57:40.873Z,90.70
2018-11-22T19:00:18.835Z,91.30
2018-11-22T19:02:55.402Z,91.20
2018-11-22T19:05:31.358Z,91.10
2018-11-22T19:08:06.419Z,91.20
2018-11-22T19:10:43.032Z,91.30
2018-11-22T19:13:18.394Z,91.60
2018-11-22T19:15:53.370Z,91.70
2018-11-22T19:18:28.892Z,91.70
2018-11-22T19:21:04.696Z,91.70
2018-11-22T19:23:40.668Z,91.60
2018-11-22T19:26:16.367Z,91.50
2018-11-22T19:28:52.339Z,91.70
2018-11-22T19:31:28.146Z,91.90
2018-11-22T19:34:03.495Z,91.90
2018-11-22T19:36:39.063Z,91.60
2018-11-22T19:39:14.082Z,91.50
2018-11-22T19:41:49.921Z,91.70
2018-11-22T19:44:25.915Z,91.80
2018-11-22T19:47:01.651Z,91.90
2018-11-22T19:49:37.668Z,91.80
2018-11-22T19:52:13.439Z,91.90
2018-11-22T19:54:48.352Z,91.90
2018-11-22T19:57:24.190Z,92.10
2018-11-22T19:59:59.440Z,92.10
2018-11-22T20:02:34.913Z,92.20
2018-11-22T20:05:11.721Z,92.30
2018-11-22T20:07:48.221Z,92.40
2018-11-22T20:10:29.172Z,92.40
2018-11-22T20:13:04.662Z,92.40
2018-11-22T20:15:40.024Z,92.30
2018-11-22T20:18:15.090Z,92.30
2018-11-22T20:20:51.353Z,92.30
2018-11-22T20:23:26.938Z,92.30
2018-11-22T20:26:02.114Z,92.30
2018-11-22T20:28:37.970Z,92.40
2018-11-22T20:31:13.916Z,92.40
2018-11-22T20:33:49.917Z,92.40
2018-11-22T20:36:25.663Z,92.40
2018-11-22T20:39:01.483Z,92.40
2018-11-22T20:41:36.808Z,92.40
2018-11-22T20:44:12.557Z,92.40
2018-11-22T20:46:48.153Z,92.40
2018-11-22T20:49:23.453Z,92.40
2018-11-22T20:51:58.447Z,92.40
2018-11-22T20:54:34.209Z,92.40
2018-11-22T20:57:09.323Z,92.40
2018-11-22T20:59:45.053Z,92.30
2018-11-22T21:02:20.648Z,92.30
2018-11-22T21:04:55.854Z,92.40
2018-11-22T21:07:31.552Z,92.50
2018-11-22T21:10:09.877Z,92.70
2018-11-22T21:12:45.160Z,92.80
2018-11-22T21:15:23.684Z,92.80
2018-11-22T21:18:00.566Z,92.80
2018-11-22T21:20:38.252Z,92.80
2018-11-22T21:23:13.704Z,92.90
2018-11-22T21:25:49.059Z,92.90
2018-11-22T21:28:24.714Z,93.00
2018-11-22T21:31:00.693Z,92.90
2018-11-22T21:33:36.516Z,93.00
2018-11-22T21:36:11.844Z,92.90
2018-11-22T21:38:47.541Z,93.00
2018-11-22T21:41:23.495Z,93.20
2018-11-22T21:43:59.226Z,93.20
2018-11-22T21:46:35.162Z,93.20
2018-11-22T21:49:11.022Z,93.30
2018-11-22T21:51:47.175Z,93.30
2018-11-22T21:54:23.035Z,93.30
2018-11-22T21:56:58.799Z,93.30
2018-11-22T21:59:34.066Z,93.30
2018-11-22T22:02:09.975Z,93.30
2018-11-22T22:04:45.839Z,93.20
2018-11-22T22:07:21.883Z,93.10
2018-11-22T22:09:57.739Z,93.10
2018-11-22T22:12:32.871Z,93.30
2018-11-22T22:15:10.510Z,93.40
2018-11-22T22:17:46.187Z,93.40
2018-11-22T22:20:22.850Z,93.40
2018-11-22T22:22:58.215Z,93.50
2018-11-22T22:25:33.966Z,93.50
2018-11-22T22:28:09.700Z,93.60
2018-11-22T22:30:46.688Z,93.60
2018-11-22T22:33:21.695Z,93.70
2018-11-22T22:35:56.819Z,93.70
2018-11-22T22:38:32.371Z,93.70
2018-11-22T22:41:07.486Z,93.70
2018-11-22T22:43:42.699Z,93.70
2018-11-22T22:46:18.630Z,93.70
2018-11-22T22:48:54.245Z,93.70
2018-11-22T22:51:29.459Z,93.70
2018-11-22T22:54:05.409Z,93.80
2018-11-22T22:56:41.186Z,93.70
2018-11-22T22:59:16.786Z,93.70
2018-11-22T23:01:51.854Z,93.90
2018-11-22T23:04:28.772Z,93.90
2018-11-22T23:07:03.539Z,93.80
2018-11-22T23:09:39.277Z,93.90
2018-11-22T23:12:15.262Z,94.10
2018-11-22T23:14:50.997Z,94.10
2018-11-22T23:17:28.108Z,94.10
2018-11-22T23:20:03.848Z,94.10
2018-11-22T23:24:08.987Z,94.10
2018-11-22T23:26:44.543Z,94.10
2018-11-22T23:29:19.577Z,94.00
2018-11-22T23:31:55.672Z,94.00
2018-11-22T23:34:31.380Z,94.00
2018-11-22T23:37:07.210Z,94.00
2018-11-22T23:39:43.920Z,94.00
2018-11-22T23:42:19.711Z,94.00
2018-11-22T23:44:55.445Z,94.00
2018-11-22T23:47:31.647Z,94.00
2018-11-22T23:50:09.598Z,94.00
2018-11-22T23:52:46.260Z,93.90
2018-11-22T23:55:22.063Z,94.00
2018-11-22T23:57:58.025Z,94.00
